Time;durP1;ratioP1;P1;durP2;ratioP2;P2;SDS_P1;SDS_P2;PMS_P1;PMS_P2;Temp;Humidity;BMP_temperature;BMP_pressure;BME280_temperature;BME280_humidity;BME280_pressure;Samples;Min_cycle;Max_cycle;Signal;HPM_P1;HPM_P2
2021/07/23 00:02:29;;;;;;;7.70;6.22;;;;;;;-148.56;100.00;61375.16;4987546;28;20748;-35
2021/07/23 00:05:53;;;;;;;7.78;6.10;;;;;;;-148.56;100.00;61375.16;4986698;28;20688;-32
2021/07/23 00:09:17;;;;;;;12.73;6.32;;;;;;;-148.56;100.00;61375.16;4988078;28;20089;-35
2021/07/23 00:12:41;;;;;;;11.00;6.30;;;;;;;-148.56;100.00;61375.16;4988093;28;20033;-36
2021/07/23 00:16:05;;;;;;;9.13;6.35;;;;;;;-148.56;100.00;61375.16;5000863;28;20030;-32
2021/07/23 00:19:29;;;;;;;9.10;6.35;;;;;;;-148.56;100.00;61375.16;4996407;28;20108;-33
2021/07/23 00:22:55;;;;;;;7.32;5.63;;;;;;;-148.56;100.00;61375.16;4988495;28;20565;-33
2021/07/23 00:26:19;;;;;;;7.47;6.13;;;;;;;-148.56;100.00;61375.16;4988432;28;20065;-33
2021/07/23 00:29:43;;;;;;;8.60;6.45;;;;;;;-148.56;100.00;61375.16;4982995;28;20025;-34
2021/07/23 00:33:07;;;;;;;8.68;6.57;;;;;;;-148.56;100.00;61375.16;4988081;28;20626;-34
2021/07/23 00:36:31;;;;;;;11.82;7.00;;;;;;;-148.56;100.00;61375.16;5001256;28;20072;-33
2021/07/23 00:39:54;;;;;;;8.32;6.15;;;;;;;-148.56;100.00;61375.16;4980649;28;20030;-34
2021/07/23 00:43:18;;;;;;;8.35;6.10;;;;;;;-148.56;100.00;61375.16;4981276;28;20041;-35
2021/07/23 00:46:42;;;;;;;8.07;6.03;;;;;;;-148.56;100.00;61375.16;4981429;28;20034;-34
2021/07/23 00:50:06;;;;;;;8.38;6.15;;;;;;;-148.56;100.00;61375.16;4991086;28;20942;-32
2021/07/23 00:53:30;;;;;;;8.70;5.97;;;;;;;-148.56;100.00;61375.16;4986302;28;20043;-32
2021/07/23 00:56:55;;;;;;;7.10;6.10;;;;;;;-148.56;100.00;61375.16;4987411;28;20030;-33
2021/07/23 01:00:18;;;;;;;7.25;5.68;;;;;;;-148.56;100.00;61375.16;5000677;28;20412;-36
2021/07/23 01:03:42;;;;;;;7.43;5.68;;;;;;;-148.56;100.00;61375.16;4989242;28;20025;-36
2021/07/23 01:07:07;;;;;;;6.45;5.78;;;;;;;-148.56;100.00;61375.16;4999597;28;20416;-34
2021/07/23 01:10:31;;;;;;;7.10;5.65;;;;;;;-148.56;100.00;61375.16;4988960;28;20116;-33
2021/07/23 01:13:55;;;;;;;7.68;5.93;;;;;;;-148.56;100.00;61375.16;4999070;28;20026;-33
2021/07/23 01:17:19;;;;;;;7.25;5.63;;;;;;;-148.56;100.00;61375.16;4984330;28;20406;-34
2021/07/23 01:20:45;;;;;;;7.38;5.65;;;;;;;-148.56;100.00;61375.16;4980782;28;20042;-32
2021/07/23 01:24:12;;;;;;;8.02;6.00;;;;;;;-148.56;100.00;61375.16;4998598;28;20033;-32
2021/07/23 01:28:09;;;;;;;7.35;5.55;;;;;;;-148.56;100.00;61375.16;4985027;28;20036;-32
2021/07/23 01:30:28;;;;;;;8.15;6.20;;;;;;;28.99;35.02;96774.91;4984372;28;20520;-32
2021/07/23 01:32:53;;;;;;;6.65;5.57;;;;;;;-148.56;35.02;96774.91;4988346;28;20029;-33
2021/07/23 01:36:00;;;;;;;8.93;6.18;;;;;;;-148.56;100.00;61375.16;4981367;28;20458;-34
2021/07/23 01:39:26;;;;;;;9.20;5.57;;;;;;;-148.56;100.00;61375.16;4986138;28;20034;-34
2021/07/23 01:42:50;;;;;;;6.80;5.80;;;;;;;-148.56;100.00;61375.16;4986912;28;20034;-33
2021/07/23 01:46:14;;;;;;;6.38;5.57;;;;;;;-148.56;100.00;61375.16;5001776;28;20034;-33
2021/07/23 01:49:38;;;;;;;7.35;5.20;;;;;;;-148.56;100.00;61375.16;4981951;28;20084;-34
2021/07/23 01:52:04;;;;;;;8.02;5.70;;;;;;;-148.56;100.00;61375.16;4981869;28;20041;-35
2021/07/23 01:54:46;;;;;;;8.20;5.95;;;;;;;-148.56;100.00;61375.16;4987039;28;20038;-33
2021/07/23 01:57:24;;;;;;;6.68;5.30;;;;;;;-148.56;100.00;61375.16;4985132;28;20029;-35
2021/07/23 02:00:48;;;;;;;6.93;5.35;;;;;;;-148.56;100.00;61375.16;4985444;28;20319;-33
2021/07/23 02:04:10;;;;;;;7.05;5.07;;;;;;;-148.56;100.00;61375.16;4985096;28;21929;-33
2021/07/23 02:07:33;;;;;;;10.70;5.75;;;;;;;-148.56;100.00;61375.16;4988777;28;20061;-34
2021/07/23 02:10:57;;;;;;;7.38;5.72;;;;;;;-148.56;100.00;61375.16;4983092;28;20026;-34
2021/07/23 02:14:21;;;;;;;7.95;5.53;;;;;;;-148.56;100.00;61375.16;4985561;28;20038;-33
2021/07/23 02:17:26;;;;;;;6.90;5.82;;;;;;;-148.56;100.00;61375.16;4983483;28;20092;-33
2021/07/23 02:20:50;;;;;;;6.57;5.43;;;;;;;-148.56;100.00;61375.16;4983092;28;20065;-36
2021/07/23 02:24:13;;;;;;;9.85;5.82;;;;;;;-148.56;100.00;61375.16;4981311;28;20065;-35
2021/07/23 02:27:37;;;;;;;7.82;5.53;;;;;;;-148.56;100.00;61375.16;4986547;28;20141;-37
2021/07/23 02:31:05;;;;;;;6.13;5.40;;;;;;;-148.56;100.00;61375.16;4986101;28;20030;-35
2021/07/23 02:34:30;;;;;;;8.40;5.57;;;;;;;-148.56;100.00;61375.16;4981703;28;20033;-34
2021/07/23 02:37:54;;;;;;;7.55;5.80;;;;;;;-148.56;100.00;61375.16;4984538;28;20030;-33
2021/07/23 02:41:17;;;;;;;7.60;5.78;;;;;;;-148.56;100.00;61375.16;4985997;28;20460;-38
2021/07/23 02:44:41;;;;;;;7.90;5.43;;;;;;;-148.56;100.00;61375.16;4988952;28;20101;-34
2021/07/23 02:48:05;;;;;;;8.05;5.80;;;;;;;-148.56;100.00;61375.16;4989373;28;20034;-35
2021/07/23 02:51:29;;;;;;;6.32;5.20;;;;;;;-148.56;100.00;61375.16;4984297;28;20044;-33
2021/07/23 02:54:53;;;;;;;6.38;5.32;;;;;;;-148.56;100.00;61375.16;4991749;28;20036;-34
2021/07/23 02:58:17;;;;;;;6.55;5.43;;;;;;;-148.56;100.00;61375.16;4989507;28;20060;-33
2021/07/23 03:01:41;;;;;;;6.13;4.97;;;;;;;-148.56;100.00;61375.16;4986906;28;20026;-33
2021/07/23 03:05:05;;;;;;;5.60;5.10;;;;;;;-148.56;100.00;61375.16;4989626;28;20084;-33
2021/07/23 03:08:31;;;;;;;6.28;5.55;;;;;;;-148.56;100.00;61375.16;4989869;28;20442;-33
2021/07/23 03:11:55;;;;;;;6.65;5.15;;;;;;;-148.56;100.00;61375.16;4988157;28;20033;-32
2021/07/23 03:15:18;;;;;;;6.10;5.10;;;;;;;-148.56;100.00;61375.16;4983714;28;20044;-31
2021/07/23 03:18:42;;;;;;;5.82;5.22;;;;;;;-148.56;100.00;61375.16;4987227;28;20034;-33
2021/07/23 03:22:07;;;;;;;7.93;5.30;;;;;;;-148.56;100.00;61375.16;4991043;28;20119;-39
2021/07/23 03:25:31;;;;;;;5.40;4.82;;;;;;;-148.56;100.00;61375.16;4986776;28;20034;-36
2021/07/23 03:28:55;;;;;;;6.43;5.50;;;;;;;-148.56;100.00;61375.16;5001415;28;20646;-32
2021/07/23 03:32:19;;;;;;;6.20;5.45;;;;;;;-148.56;100.00;61375.16;4987062;28;20496;-35
2021/07/23 03:35:43;;;;;;;7.65;5.32;;;;;;;-148.56;100.00;61375.16;4990483;28;20065;-34
2021/07/23 03:39:06;;;;;;;6.00;5.40;;;;;;;-148.56;100.00;61375.16;4987730;28;20748;-31
2021/07/23 03:42:31;;;;;;;6.15;5.32;;;;;;;-148.56;100.00;61375.16;4985857;28;20038;-31
2021/07/23 03:45:55;;;;;;;6.47;5.13;;;;;;;-148.56;100.00;61375.16;4988366;28;20034;-32
2021/07/23 03:49:18;;;;;;;6.88;5.70;;;;;;;-148.56;100.00;61375.16;5002513;28;20504;-35
2021/07/23 03:52:42;;;;;;;6.60;5.05;;;;;;;-148.56;100.00;61375.16;4988205;28;20117;-32
2021/07/23 03:56:06;;;;;;;5.32;4.82;;;;;;;-148.56;100.00;61375.16;4986604;28;20026;-31
2021/07/23 03:59:31;;;;;;;6.43;4.97;;;;;;;-148.56;100.00;61375.16;4982190;28;20045;-31
2021/07/23 04:02:55;;;;;;;5.95;5.03;;;;;;;-148.56;100.00;61375.16;4987420;28;20108;-33
2021/07/23 04:06:19;;;;;;;7.20;5.13;;;;;;;-148.56;100.00;61375.16;4989856;28;20042;-32
2021/07/23 04:09:43;;;;;;;8.07;5.60;;;;;;;-148.56;100.00;61375.16;4989381;28;20634;-32
2021/07/23 04:13:07;;;;;;;5.85;4.68;;;;;;;-148.56;100.00;61375.16;4988088;28;20046;-32
2021/07/23 04:16:31;;;;;;;5.72;5.10;;;;;;;-148.56;100.00;61375.16;4982421;28;20499;-32
2021/07/23 04:19:54;;;;;;;6.10;5.03;;;;;;;-148.56;100.00;61375.16;4988932;28;20064;-36
2021/07/23 04:23:18;;;;;;;8.02;5.20;;;;;;;-148.56;100.00;61375.16;4986637;28;20496;-33
2021/07/23 04:26:42;;;;;;;6.57;5.35;;;;;;;-148.56;100.00;61375.16;4987278;28;20060;-33
2021/07/23 04:30:06;;;;;;;6.63;5.18;;;;;;;-148.56;100.00;61375.16;4982792;28;20017;-37
2021/07/23 04:33:30;;;;;;;6.40;4.97;;;;;;;-148.56;100.00;61375.16;4988137;28;20156;-31
2021/07/23 04:36:58;;;;;;;6.15;5.10;;;;;;;-148.56;100.00;61375.16;4990268;28;20059;-32
2021/07/23 04:40:22;;;;;;;8.05;5.10;;;;;;;-148.56;100.00;61375.16;4988126;28;20032;-30
2021/07/23 04:43:02;;;;;;;6.93;5.10;;;;;;;-148.56;100.00;61375.16;4983844;28;20061;-32
2021/07/23 04:46:26;;;;;;;7.07;5.15;;;;;;;-148.56;100.00;61375.16;4986252;28;20042;-35
2021/07/23 04:49:50;;;;;;;8.63;5.60;;;;;;;-148.56;100.00;61375.16;4984750;28;20044;-34
2021/07/23 04:53:14;;;;;;;5.97;5.38;;;;;;;-148.56;100.00;61375.16;4986513;28;20575;-31
2021/07/23 04:56:38;;;;;;;7.05;5.18;;;;;;;-148.56;100.00;61375.16;4985470;28;20034;-31
2021/07/23 05:00:02;;;;;;;9.10;5.13;;;;;;;-148.56;100.00;61375.16;4989759;28;20087;-31
2021/07/23 05:03:32;;;;;;;5.82;4.80;;;;;;;-148.56;100.00;61375.16;4988067;28;20508;-31
2021/07/23 05:06:56;;;;;;;7.30;4.97;;;;;;;-148.56;100.00;61375.16;4988069;28;20041;-34
2021/07/23 05:10:20;;;;;;;6.95;5.15;;;;;;;-148.56;100.00;61375.16;4978438;28;20403;-33
2021/07/23 05:13:44;;;;;;;6.38;5.20;;;;;;;-148.56;100.00;61375.16;5002734;28;20404;-33
2021/07/23 05:17:08;;;;;;;6.22;4.75;;;;;;;-148.56;100.00;61375.16;4982745;28;20070;-30
2021/07/23 05:20:32;;;;;;;7.65;4.78;;;;;;;-148.56;100.00;61375.16;5002688;28;21539;-33
2021/07/23 05:24:03;;;;;;;5.90;4.80;;;;;;;-148.56;100.00;61375.16;4987844;28;20742;-32
2021/07/23 05:27:28;;;;;;;10.50;5.28;;;;;;;-148.56;100.00;61375.16;4989955;28;20462;-32
2021/07/23 05:30:52;;;;;;;11.35;5.60;;;;;;;-148.56;100.00;61375.16;4984825;28;20038;-32
2021/07/23 05:34:15;;;;;;;6.28;5.28;;;;;;;-148.56;100.00;61375.16;4984914;28;20050;-31
2021/07/23 05:37:39;;;;;;;10.73;5.32;;;;;;;-148.56;100.00;61375.16;4984664;28;20062;-33
2021/07/23 05:41:10;;;;;;;7.30;4.78;;;;;;;-148.56;100.00;61375.16;4983650;28;20029;-31
2021/07/23 05:44:24;;;;;;;6.00;4.95;;;;;;;;;;4997214;28;20081;-33
2021/07/23 05:46:50;;;;;;;16.20;6.80;;;;;;;-148.56;100.00;61375.16;4979748;28;20029;-32
2021/07/23 05:50:14;;;;;;;12.23;7.30;;;;;;;-148.56;100.00;61375.16;4977980;28;20454;-33
2021/07/23 05:53:35;;;;;;;15.27;7.10;;;;;;;-148.56;100.00;61375.16;4982658;28;20037;-31
2021/07/23 05:57:02;;;;;;;17.80;8.20;;;;;;;-148.56;100.00;61375.16;4982091;28;20578;-32
2021/07/23 06:00:29;;;;;;;17.58;8.45;;;;;;;-148.56;100.00;61375.16;4989994;28;20063;-32
2021/07/23 06:03:53;;;;;;;11.25;7.82;;;;;;;-148.56;100.00;61375.16;4979028;28;20030;-35
2021/07/23 06:07:18;;;;;;;11.88;8.32;;;;;;;-148.56;100.00;61375.16;4977221;28;20084;-34
2021/07/23 06:10:42;;;;;;;14.02;8.38;;;;;;;-148.56;100.00;61375.16;4986038;28;20045;-34
2021/07/23 06:14:06;;;;;;;14.52;8.13;;;;;;;-148.56;100.00;61375.16;4971754;28;20656;-34
2021/07/23 06:17:30;;;;;;;13.82;7.88;;;;;;;-148.56;100.00;61375.16;4978841;28;23180;-33
2021/07/23 06:20:54;;;;;;;10.50;8.07;;;;;;;-148.56;100.00;61375.16;4978624;28;20037;-34
2021/07/23 06:23:23;;;;;;;13.50;8.77;;;;;;;-148.56;100.00;61375.16;4979069;28;20038;-32
2021/07/23 06:26:46;;;;;;;9.93;8.13;;;;;;;-148.56;100.00;61375.16;4977646;28;20089;-34
2021/07/23 06:30:11;;;;;;;16.45;8.82;;;;;;;-148.56;100.00;61375.16;4978718;28;20030;-34
2021/07/23 06:33:35;;;;;;;35.03;9.38;;;;;;;-148.56;100.00;61375.16;4978684;28;20109;-33
2021/07/23 06:36:58;;;;;;;76.82;11.32;;;;;;;-148.56;100.00;61375.16;4981166;28;20507;-36
2021/07/23 06:40:22;;;;;;;54.70;11.50;;;;;;;-148.56;100.00;61375.16;4978131;28;20034;-37
2021/07/23 06:43:46;;;;;;;27.70;9.02;;;;;;;-148.56;100.00;61375.16;4977654;28;20050;-37
2021/07/23 06:47:10;;;;;;;19.77;9.60;;;;;;;-148.56;100.00;61375.16;4978702;28;20038;-39
2021/07/23 06:50:34;;;;;;;20.33;9.60;;;;;;;-148.56;100.00;61375.16;4978511;28;20576;-34
2021/07/23 06:54:01;;;;;;;21.70;9.57;;;;;;;-148.56;100.00;61375.16;4961230;28;20057;-37
2021/07/23 06:57:25;;;;;;;17.73;9.63;;;;;;;-148.56;100.00;61375.16;4976917;28;20034;-34
2021/07/23 07:00:48;;;;;;;15.57;9.20;;;;;;;-148.56;100.00;61375.16;4978130;28;20030;-34
2021/07/23 07:04:11;;;;;;;17.08;9.73;;;;;;;-148.56;100.00;61375.16;4979589;28;20068;-36
2021/07/23 07:07:35;;;;;;;20.45;9.35;;;;;;;-148.56;100.00;61375.16;4979020;28;20592;-32
2021/07/23 07:10:59;;;;;;;26.05;10.60;;;;;;;-148.56;100.00;61375.16;4977484;28;20034;-33
2021/07/23 07:14:23;;;;;;;19.30;9.43;;;;;;;-148.56;100.00;61375.16;4977789;28;20588;-34
2021/07/23 07:17:47;;;;;;;22.25;9.50;;;;;;;-148.56;100.00;61375.16;4980072;28;20026;-33
2021/07/23 07:21:13;;;;;;;15.02;9.07;;;;;;;-148.56;100.00;61375.16;4982703;28;20037;-34
2021/07/23 07:24:38;;;;;;;25.15;9.93;;;;;;;-148.56;100.00;61375.16;4984228;28;20906;-35
2021/07/23 07:28:02;;;;;;;24.13;9.55;;;;;;;-148.56;100.00;61375.16;4988417;28;20512;-33
2021/07/23 07:31:26;;;;;;;14.48;8.82;;;;;;;-148.56;100.00;61375.16;4986558;28;20063;-32
2021/07/23 07:34:50;;;;;;;15.27;8.32;;;;;;;-148.56;100.00;61375.16;4988538;28;20057;-34
2021/07/23 07:38:12;;;;;;;15.65;8.85;;;;;;;-148.56;100.00;61375.16;4988780;28;20034;-35
2021/07/23 07:41:36;;;;;;;22.00;9.32;;;;;;;-148.56;100.00;61375.16;4989829;28;20057;-34
2021/07/23 07:45:00;;;;;;;25.25;10.15;;;;;;;-148.56;100.00;61375.16;4995194;28;20041;-32
2021/07/23 07:48:24;;;;;;;15.23;8.95;;;;;;;-148.56;100.00;61375.16;4985678;28;20028;-32
2021/07/23 07:51:47;;;;;;;19.23;9.63;;;;;;;-148.56;100.00;61375.16;4983957;28;20030;-32
2021/07/23 07:55:11;;;;;;;13.15;8.68;;;;;;;-148.56;100.00;61375.16;5002166;28;20718;-34
2021/07/23 07:58:35;;;;;;;22.27;10.00;;;;;;;-148.56;100.00;61375.16;4979290;28;20748;-34
2021/07/23 08:02:02;;;;;;;17.83;10.32;;;;;;;-148.56;100.00;61375.16;4983027;28;20026;-32
2021/07/23 08:05:26;;;;;;;17.63;10.00;;;;;;;-148.56;100.00;61375.16;4979533;28;20058;-33
2021/07/23 08:08:51;;;;;;;13.60;9.10;;;;;;;-148.56;100.00;61375.16;4980323;28;20080;-34
2021/07/23 08:12:15;;;;;;;16.25;9.50;;;;;;;-148.56;100.00;61375.16;4980821;28;20026;-37
2021/07/23 08:15:39;;;;;;;15.50;9.02;;;;;;;-148.56;100.00;61375.16;4981293;28;20033;-35
2021/07/23 08:19:03;;;;;;;15.00;8.23;;;;;;;-148.56;100.00;61375.16;4979451;28;20112;-34
2021/07/23 08:22:28;;;;;;;12.45;8.52;;;;;;;-148.56;100.00;61375.16;5000395;28;20323;-36
2021/07/23 08:25:52;;;;;;;14.80;9.00;;;;;;;-148.56;100.00;61375.16;4986916;28;20030;-35
2021/07/23 08:29:15;;;;;;;12.55;9.05;;;;;;;-148.56;100.00;61375.16;4977832;28;20044;-33
2021/07/23 08:32:43;;;;;;;18.38;8.50;;;;;;;-148.56;100.00;61375.16;4987695;28;20038;-33
2021/07/23 08:36:07;;;;;;;9.60;8.20;;;;;;;-148.56;100.00;61375.16;4987705;28;20522;-32
2021/07/23 08:39:31;;;;;;;10.70;8.05;;;;;;;-148.56;100.00;61375.16;4988429;28;20080;-34
2021/07/23 08:42:55;;;;;;;12.18;8.43;;;;;;;-148.56;100.00;61375.16;4987276;28;20746;-34
2021/07/23 08:46:19;;;;;;;18.48;8.20;;;;;;;-148.56;100.00;61375.16;4989821;28;20233;-35
2021/07/23 08:49:43;;;;;;;10.93;8.40;;;;;;;-148.56;100.00;61375.16;5003679;28;20505;-38
2021/07/23 08:53:09;;;;;;;13.07;7.78;;;;;;;-148.56;100.00;61375.16;4990927;28;20121;-37
2021/07/23 08:56:33;;;;;;;10.68;8.00;;;;;;;-148.56;100.00;61375.16;4988987;28;20033;-37
2021/07/23 08:59:57;;;;;;;14.82;7.75;;;;;;;-148.56;100.00;61375.16;4990921;28;20037;-37
2021/07/23 09:03:22;;;;;;;9.77;7.72;;;;;;;-148.56;100.00;61375.16;4988741;28;20440;-35
2021/07/23 09:06:46;;;;;;;8.55;7.15;;;;;;;-148.56;100.00;61375.16;4994808;28;20383;-31
2021/07/23 09:10:12;;;;;;;10.95;7.10;;;;;;;-148.56;100.00;61375.16;4973799;28;20030;-31
2021/07/23 09:13:39;;;;;;;7.57;6.72;;;;;;;-148.56;100.00;61375.16;4987479;28;20480;-31
2021/07/23 09:17:20;;;;;;;10.15;7.07;;;;;;;-148.56;100.00;61375.16;4976646;28;20073;-36
2021/07/23 09:21:05;;;;;;;7.72;6.72;;;;;;;-148.56;100.00;61375.16;4995132;28;20030;-31
2021/07/23 09:24:51;;;;;;;15.25;6.78;;;;;;;-148.56;100.00;61375.16;4984323;28;20496;-33
2021/07/23 09:28:31;;;;;;;10.70;7.10;;;;;;;-148.56;100.00;61375.16;5002057;28;20083;-33
2021/07/23 09:32:06;;;;;;;9.45;7.18;;;;;;;-148.56;100.00;61375.16;4984526;28;20088;-31
2021/07/23 09:35:30;;;;;;;10.40;7.25;;;;;;;-148.56;100.00;61375.16;4996135;28;20117;-30
2021/07/23 09:39:01;;;;;;;10.85;7.18;;;;;;;-148.56;100.00;61375.16;4981073;28;20046;-31
2021/07/23 09:42:26;;;;;;;13.48;7.55;;;;;;;-148.56;100.00;61375.16;4982552;28;20104;-32
2021/07/23 09:46:18;;;;;;;11.80;7.15;;;;;;;-148.56;100.00;61375.16;4996924;28;20034;-33
2021/07/23 09:49:44;;;;;;;10.38;7.55;;;;;;;-148.56;100.00;61375.16;4983145;28;20034;-33
2021/07/23 09:53:08;;;;;;;17.33;7.25;;;;;;;-148.56;100.00;61375.16;4983307;28;20049;-34
2021/07/23 09:56:32;;;;;;;11.63;7.57;;;;;;;-148.56;100.00;61375.16;4999838;28;20030;-31
2021/07/23 10:00:06;;;;;;;12.25;7.25;;;;;;;-148.56;100.00;61375.16;4992438;28;20488;-31
2021/07/23 10:03:29;;;;;;;12.45;7.32;;;;;;;-148.56;100.00;61375.16;5004430;28;20034;-32
2021/07/23 10:06:57;;;;;;;15.20;7.68;;;;;;;-148.56;100.00;61375.16;5002773;28;20088;-36
2021/07/23 10:10:21;;;;;;;15.27;7.35;;;;;;;-148.56;100.00;61375.16;4986129;28;20034;-30
2021/07/23 10:13:45;;;;;;;8.45;7.10;;;;;;;-148.56;100.00;61375.16;4988617;28;20041;-32
2021/07/23 10:17:09;;;;;;;10.52;7.93;;;;;;;-148.56;100.00;61375.16;5003487;28;20029;-30
2021/07/23 10:20:35;;;;;;;11.73;7.75;;;;;;;-148.56;100.00;61375.16;4989466;28;20108;-32
2021/07/23 10:23:59;;;;;;;15.68;7.32;;;;;;;-148.56;100.00;61375.16;4990474;28;20034;-32
2021/07/23 10:27:24;;;;;;;11.13;7.47;;;;;;;-148.56;100.00;61375.16;4984939;28;20034;-35
2021/07/23 10:30:49;;;;;;;14.15;7.60;;;;;;;-148.56;100.00;61375.16;4996089;28;20042;-31
2021/07/23 10:34:28;;;;;;;10.68;6.95;;;;;;;-148.56;100.00;61375.16;5000551;28;20018;-35
2021/07/23 10:37:52;;;;;;;8.57;7.45;;;;;;;-148.56;100.00;61375.16;4996877;28;20173;-30
2021/07/23 10:41:19;;;;;;;8.32;6.95;;;;;;;-148.56;100.00;61375.16;4997806;28;20404;-31
2021/07/23 10:44:43;;;;;;;10.50;7.38;;;;;;;-148.56;100.00;61375.16;4989727;28;20026;-36
2021/07/23 10:48:07;;;;;;;11.20;7.28;;;;;;;-148.56;100.00;61375.16;4990126;28;20033;-31
2021/07/23 10:51:52;;;;;;;9.02;7.57;;;;;;;-148.56;100.00;61375.16;4993989;28;20029;-32
2021/07/23 10:55:22;;;;;;;9.35;7.32;;;;;;;-148.56;100.00;61375.16;4986298;28;20101;-32
2021/07/23 10:59:05;;;;;;;12.65;7.30;;;;;;;-148.56;100.00;61375.16;4990286;28;20026;-32
2021/07/23 11:02:47;;;;;;;10.10;7.18;;;;;;;-148.56;100.00;61375.16;4985258;28;20314;-33
2021/07/23 11:06:19;;;;;;;21.88;8.68;;;;;;;-148.56;100.00;61375.16;4952402;28;20093;-33
2021/07/23 11:09:53;;;;;;;17.08;8.10;;;;;;;-148.56;100.00;61375.16;4975778;28;20279;-37
2021/07/23 11:13:17;;;;;;;15.73;7.97;;;;;;;-148.56;100.00;61375.16;4993223;28;20053;-35
2021/07/23 11:16:41;;;;;;;10.73;7.70;;;;;;;-148.56;100.00;61375.16;4987375;28;20653;-36
2021/07/23 11:20:05;;;;;;;26.15;8.15;;;;;;;-148.56;100.00;61375.16;4982420;28;20088;-32
2021/07/23 11:23:30;;;;;;;9.65;7.60;;;;;;;-148.56;100.00;61375.16;4982170;28;20041;-32
2021/07/23 11:26:56;;;;;;;17.50;8.02;;;;;;;-148.56;100.00;61375.16;5000595;28;20149;-33
2021/07/23 11:30:36;;;;;;;17.92;7.95;;;;;;;-148.56;100.00;61375.16;4992861;28;20106;-32
2021/07/23 11:34:21;;;;;;;17.45;7.65;;;;;;;-148.56;100.00;61375.16;4987706;28;20049;-31
2021/07/23 11:37:46;;;;;;;14.05;7.80;;;;;;;-148.56;100.00;61375.16;4986440;28;20027;-31
2021/07/23 11:41:10;;;;;;;19.88;7.97;;;;;;;-148.56;100.00;61375.16;4986573;28;20117;-32
2021/07/23 11:44:34;;;;;;;16.90;8.07;;;;;;;-148.56;100.00;61375.16;4993944;28;20123;-31
2021/07/23 11:48:06;;;;;;;19.35;7.65;;;;;;;-148.56;100.00;61375.16;4984814;28;20116;-32
2021/07/23 11:51:40;;;;;;;17.42;7.47;;;;;;;-148.56;100.00;61375.16;4997406;28;20037;-33
2021/07/23 11:55:04;;;;;;;19.98;7.95;;;;;;;-148.56;100.00;61375.16;4997870;28;20026;-32
2021/07/23 11:58:30;;;;;;;16.83;8.50;;;;;;;-148.56;100.00;61375.16;4992613;28;20030;-34
2021/07/23 12:01:53;;;;;;;16.17;8.00;;;;;;;-148.56;100.00;61375.16;4979300;28;20029;-31
2021/07/23 12:05:27;;;;;;;19.55;8.45;;;;;;;-148.56;100.00;61375.16;4994292;28;20060;-33
2021/07/23 12:09:00;;;;;;;13.02;7.38;;;;;;;-148.56;100.00;61375.16;4986670;28;20034;-37
2021/07/23 12:12:24;;;;;;;10.43;7.55;;;;;;;-148.56;100.00;61375.16;4979766;28;20792;-33
2021/07/23 12:15:52;;;;;;;15.90;7.45;;;;;;;-148.56;100.00;61375.16;4977821;28;20065;-31
2021/07/23 12:19:17;;;;;;;17.88;7.05;;;;;;;-148.56;100.00;61375.16;4986672;28;20042;-32
2021/07/23 12:22:40;;;;;;;13.77;7.30;;;;;;;-148.56;100.00;61375.16;4975355;28;20496;-34
2021/07/23 12:26:30;;;;;;;9.38;7.00;;;;;;;-148.56;100.00;61375.16;4990954;28;20133;-33
2021/07/23 12:29:55;;;;;;;8.60;6.78;;;;;;;-148.56;100.00;61375.16;4972221;28;20034;-33
2021/07/23 12:33:25;;;;;;;12.52;6.93;;;;;;;-148.56;100.00;61375.16;4981396;28;20033;-34
2021/07/23 12:36:52;;;;;;;10.68;6.85;;;;;;;-148.56;100.00;61375.16;4993622;28;20084;-33
2021/07/23 12:40:16;;;;;;;14.50;7.03;;;;;;;-148.56;100.00;61375.16;4977743;28;20583;-30
2021/07/23 12:43:40;;;;;;;10.38;7.07;;;;;;;-148.56;100.00;61375.16;4986326;28;20033;-33
2021/07/23 12:47:14;;;;;;;11.02;7.05;;;;;;;-148.56;100.00;61375.16;4979400;28;20038;-34
2021/07/23 12:50:39;;;;;;;12.65;7.38;;;;;;;-148.56;100.00;61375.16;4984939;28;20979;-34
2021/07/23 12:54:03;;;;;;;10.27;7.13;;;;;;;-148.56;100.00;61375.16;4988341;28;20038;-33
2021/07/23 12:57:31;;;;;;;10.55;7.10;;;;;;;-148.56;100.00;61375.16;4974507;28;20693;-33
2021/07/23 13:01:14;;;;;;;8.73;6.65;;;;;;;-148.56;100.00;61375.16;4980463;28;20030;-31
2021/07/23 13:04:38;;;;;;;10.57;6.72;;;;;;;-148.56;100.00;61375.16;4977597;28;20041;-34
2021/07/23 13:08:03;;;;;;;8.48;6.50;;;;;;;-148.56;100.00;61375.16;4981723;28;20049;-35
2021/07/23 13:11:27;;;;;;;7.32;6.40;;;;;;;-148.56;100.00;61375.16;4988028;28;20148;-33
2021/07/23 13:14:51;;;;;;;8.90;6.60;;;;;;;-148.56;100.00;61375.16;4981531;28;20235;-35
2021/07/23 13:18:15;;;;;;;11.20;6.85;;;;;;;-148.56;100.00;61375.16;4978965;28;20034;-37
2021/07/23 13:21:39;;;;;;;9.15;6.88;;;;;;;-148.56;100.00;61375.16;4977172;28;21052;-32
2021/07/23 13:25:06;;;;;;;14.10;7.45;;;;;;;-148.56;100.00;61375.16;4983477;28;20085;-32
2021/07/23 13:28:31;;;;;;;12.23;7.30;;;;;;;-148.56;100.00;61375.16;4996594;28;20038;-30
2021/07/23 13:31:55;;;;;;;11.50;7.68;;;;;;;-148.56;100.00;61375.16;4979512;28;20026;-32
2021/07/23 13:35:19;;;;;;;10.95;7.80;;;;;;;-148.56;100.00;61375.16;4977482;28;20408;-32
2021/07/23 13:38:52;;;;;;;9.23;7.30;;;;;;;-148.56;100.00;61375.16;4972592;28;20037;-34
2021/07/23 13:42:17;;;;;;;10.25;7.65;;;;;;;-148.56;100.00;61375.16;4976573;28;20665;-33
2021/07/23 13:45:42;;;;;;;8.40;7.18;;;;;;;-148.56;100.00;61375.16;4979735;28;20056;-31
2021/07/23 13:49:06;;;;;;;11.93;8.30;;;;;;;-148.56;100.00;61375.16;4978628;28;20054;-34
2021/07/23 13:52:26;;;;;;;10.65;8.10;;;;;;;-148.56;100.00;61375.16;4976308;28;20038;-33
2021/07/23 13:55:50;;;;;;;9.70;7.70;;;;;;;-148.56;100.00;61375.16;4987908;28;20064;-34
2021/07/23 13:59:13;;;;;;;12.48;8.18;;;;;;;-148.56;100.00;61375.16;4994594;28;20038;-32
2021/07/23 14:02:40;;;;;;;10.35;7.53;;;;;;;-148.56;100.00;61375.16;4978231;28;20026;-33
2021/07/23 14:06:05;;;;;;;12.70;7.95;;;;;;;-148.56;100.00;61375.16;4987630;28;20031;-33
2021/07/23 14:09:29;;;;;;;10.68;8.23;;;;;;;-148.56;100.00;61375.16;4982044;28;20125;-35
2021/07/23 14:12:54;;;;;;;9.65;7.68;;;;;;;-148.56;100.00;61375.16;4980025;28;20036;-32
2021/07/23 14:16:19;;;;;;;11.02;7.47;;;;;;;-148.56;100.00;61375.16;4990346;28;20050;-32
2021/07/23 14:19:45;;;;;;;10.68;8.05;;;;;;;-148.56;100.00;61375.16;4981549;28;20125;-32
2021/07/23 14:23:11;;;;;;;8.80;7.38;;;;;;;-148.56;100.00;61375.16;4981936;28;20030;-33
2021/07/23 14:26:35;;;;;;;8.48;7.57;;;;;;;-148.56;100.00;61375.16;4980935;28;20040;-32
2021/07/23 14:29:59;;;;;;;11.00;7.05;;;;;;;-148.56;100.00;61375.16;4981329;28;20033;-31
2021/07/23 14:33:25;;;;;;;9.23;7.43;;;;;;;-148.56;100.00;61375.16;4984632;28;20026;-35
2021/07/23 14:36:49;;;;;;;10.27;7.75;;;;;;;-148.56;100.00;61375.16;4982828;28;20476;-32
2021/07/23 14:40:13;;;;;;;8.82;7.72;;;;;;;-148.56;100.00;61375.16;4974606;28;20037;-32
2021/07/23 14:43:37;;;;;;;12.93;8.15;;;;;;;-148.56;100.00;61375.16;4983588;28;20154;-32
2021/07/23 14:47:01;;;;;;;10.27;8.10;;;;;;;-148.56;100.00;61375.16;4978942;28;20031;-33
2021/07/23 14:50:26;;;;;;;10.35;7.50;;;;;;;-148.56;100.00;61375.16;4985409;28;20030;-32
2021/07/23 14:53:49;;;;;;;13.50;7.25;;;;;;;-148.56;100.00;61375.16;4978105;28;20096;-32
2021/07/23 14:57:13;;;;;;;9.85;7.00;;;;;;;-148.56;100.00;61375.16;4977549;28;20026;-32
2021/07/23 15:00:37;;;;;;;10.48;7.68;;;;;;;-148.56;100.00;61375.16;4977513;28;20599;-33
2021/07/23 15:04:04;;;;;;;11.02;7.30;;;;;;;-148.56;100.00;61375.16;4981261;28;20040;-32
2021/07/23 15:07:28;;;;;;;10.02;7.32;;;;;;;-148.56;100.00;61375.16;4977205;28;20034;-33
2021/07/23 15:10:52;;;;;;;8.55;6.65;;;;;;;-148.56;100.00;61375.16;4968825;28;20559;-31
2021/07/23 15:14:16;;;;;;;12.95;6.97;;;;;;;-148.56;100.00;61375.16;4977064;28;20069;-31
2021/07/23 15:17:42;;;;;;;9.65;6.65;;;;;;;-148.56;100.00;61375.16;4975985;28;20034;-33
2021/07/23 15:21:06;;;;;;;9.77;6.85;;;;;;;-148.56;100.00;61375.16;4985172;28;20031;-33
2021/07/23 15:24:34;;;;;;;7.65;6.80;;;;;;;-148.56;100.00;61375.16;4985820;28;20244;-33